sensor_id;sensor_type;location;lat;lon;timestamp;P1;durP1;ratioP1;P2;durP2;ratioP2
10201;SDS011;5143;42.584;23.164;2023-03-14T00:01:08;4.10;;;2.67;;
10201;SDS011;5143;42.584;23.164;2023-03-14T00:03:36;4.47;;;2.90;;
10201;SDS011;5143;42.584;23.164;2023-03-14T00:06:03;4.27;;;2.40;;
10201;SDS011;5143;42.584;23.164;2023-03-14T00:08:30;5.40;;;2.33;;
10201;SDS011;5143;42.584;23.164;2023-03-14T00:10:57;4.17;;;2.77;;
10201;SDS011;5143;42.584;23.164;2023-03-14T00:13:24;4.97;;;2.80;;
10201;SDS011;5143;42.584;23.164;2023-03-14T00:15:52;4.60;;;2.90;;
10201;SDS011;5143;42.584;23.164;2023-03-14T00:18:19;4.50;;;2.93;;
10201;SDS011;5143;42.584;23.164;2023-03-14T00:20:46;5.20;;;3.10;;
10201;SDS011;5143;42.584;23.164;2023-03-14T00:23:13;5.30;;;2.60;;
10201;SDS011;5143;42.584;23.164;2023-03-14T00:25:39;4.23;;;2.50;;
10201;SDS011;5143;42.584;23.164;2023-03-14T00:28:06;4.47;;;2.70;;
10201;SDS011;5143;42.584;23.164;2023-03-14T00:30:33;5.27;;;3.10;;
10201;SDS011;5143;42.584;23.164;2023-03-14T00:33:01;4.77;;;2.43;;
10201;SDS011;5143;42.584;23.164;2023-03-14T00:35:28;8.40;;;3.57;;
10201;SDS011;5143;42.584;23.164;2023-03-14T00:37:54;6.77;;;3.43;;
10201;SDS011;5143;42.584;23.164;2023-03-14T00:40:21;9.43;;;3.20;;
10201;SDS011;5143;42.584;23.164;2023-03-14T00:42:48;3.93;;;2.63;;
10201;SDS011;5143;42.584;23.164;2023-03-14T00:45:15;5.27;;;3.33;;
10201;SDS011;5143;42.584;23.164;2023-03-14T00:47:41;5.80;;;3.53;;
10201;SDS011;5143;42.584;23.164;2023-03-14T00:50:11;4.90;;;3.00;;
10201;SDS011;5143;42.584;23.164;2023-03-14T00:52:39;4.13;;;3.03;;
10201;SDS011;5143;42.584;23.164;2023-03-14T00:55:06;4.67;;;3.10;;
10201;SDS011;5143;42.584;23.164;2023-03-14T00:57:33;7.33;;;4.77;;
10201;SDS011;5143;42.584;23.164;2023-03-14T01:00:00;7.50;;;3.73;;
10201;SDS011;5143;42.584;23.164;2023-03-14T01:02:29;4.93;;;3.07;;
10201;SDS011;5143;42.584;23.164;2023-03-14T01:04:55;4.73;;;3.17;;
10201;SDS011;5143;42.584;23.164;2023-03-14T01:07:23;4.37;;;2.97;;
10201;SDS011;5143;42.584;23.164;2023-03-14T01:09:51;4.60;;;3.23;;
10201;SDS011;5143;42.584;23.164;2023-03-14T01:12:18;5.23;;;3.80;;
10201;SDS011;5143;42.584;23.164;2023-03-14T01:14:44;10.23;;;4.60;;
10201;SDS011;5143;42.584;23.164;2023-03-14T01:17:11;5.97;;;4.03;;
10201;SDS011;5143;42.584;23.164;2023-03-14T01:19:38;5.70;;;3.80;;
10201;SDS011;5143;42.584;23.164;2023-03-14T01:22:05;7.07;;;3.63;;
10201;SDS011;5143;42.584;23.164;2023-03-14T01:24:33;4.70;;;3.77;;
10201;SDS011;5143;42.584;23.164;2023-03-14T01:27:00;5.67;;;3.63;;
10201;SDS011;5143;42.584;23.164;2023-03-14T01:29:26;4.87;;;3.30;;
10201;SDS011;5143;42.584;23.164;2023-03-14T01:31:53;6.03;;;3.60;;
10201;SDS011;5143;42.584;23.164;2023-03-14T01:34:20;6.30;;;3.70;;
10201;SDS011;5143;42.584;23.164;2023-03-14T01:36:46;5.90;;;3.83;;
10201;SDS011;5143;42.584;23.164;2023-03-14T01:39:13;6.03;;;3.80;;
10201;SDS011;5143;42.584;23.164;2023-03-14T01:41:42;6.50;;;3.73;;
10201;SDS011;5143;42.584;23.164;2023-03-14T01:44:09;5.67;;;3.43;;
10201;SDS011;5143;42.584;23.164;2023-03-14T01:46:37;6.47;;;3.77;;
10201;SDS011;5143;42.584;23.164;2023-03-14T01:49:07;6.67;;;3.83;;
10201;SDS011;5143;42.584;23.164;2023-03-14T01:51:41;5.07;;;3.73;;
10201;SDS011;5143;42.584;23.164;2023-03-14T01:54:12;6.53;;;4.60;;
10201;SDS011;5143;42.584;23.164;2023-03-14T01:56:47;6.40;;;3.83;;
10201;SDS011;5143;42.584;23.164;2023-03-14T01:59:18;8.07;;;4.60;;
10201;SDS011;5143;42.584;23.164;2023-03-14T02:01:46;8.63;;;4.00;;
10201;SDS011;5143;42.584;23.164;2023-03-14T02:04:14;9.13;;;4.53;;
10201;SDS011;5143;42.584;23.164;2023-03-14T02:06:48;10.80;;;5.03;;
10201;SDS011;5143;42.584;23.164;2023-03-14T02:09:18;7.07;;;4.47;;
10201;SDS011;5143;42.584;23.164;2023-03-14T02:11:47;5.00;;;3.93;;
10201;SDS011;5143;42.584;23.164;2023-03-14T02:14:20;7.77;;;5.00;;
10201;SDS011;5143;42.584;23.164;2023-03-14T02:16:53;8.77;;;5.17;;
10201;SDS011;5143;42.584;23.164;2023-03-14T02:19:25;6.47;;;4.67;;
10201;SDS011;5143;42.584;23.164;2023-03-14T02:22:02;10.00;;;5.33;;
10201;SDS011;5143;42.584;23.164;2023-03-14T02:24:35;10.17;;;5.87;;
10201;SDS011;5143;42.584;23.164;2023-03-14T02:27:11;8.37;;;5.37;;
10201;SDS011;5143;42.584;23.164;2023-03-14T02:29:40;11.50;;;6.87;;
10201;SDS011;5143;42.584;23.164;2023-03-14T02:32:13;18.63;;;11.83;;
10201;SDS011;5143;42.584;23.164;2023-03-14T02:34:42;17.17;;;8.70;;
10201;SDS011;5143;42.584;23.164;2023-03-14T02:37:12;12.53;;;7.83;;
10201;SDS011;5143;42.584;23.164;2023-03-14T02:39:43;13.70;;;8.23;;
10201;SDS011;5143;42.584;23.164;2023-03-14T02:42:12;16.47;;;8.87;;
10201;SDS011;5143;42.584;23.164;2023-03-14T02:44:51;17.20;;;8.27;;
10201;SDS011;5143;42.584;23.164;2023-03-14T02:47:20;11.97;;;8.27;;
10201;SDS011;5143;42.584;23.164;2023-03-14T02:49:52;14.03;;;7.73;;
10201;SDS011;5143;42.584;23.164;2023-03-14T02:52:26;11.17;;;6.67;;
10201;SDS011;5143;42.584;23.164;2023-03-14T02:54:52;10.93;;;7.57;;
10201;SDS011;5143;42.584;23.164;2023-03-14T02:57:20;12.27;;;7.30;;
10201;SDS011;5143;42.584;23.164;2023-03-14T02:59:47;13.67;;;7.00;;
10201;SDS011;5143;42.584;23.164;2023-03-14T03:02:14;10.20;;;7.47;;
10201;SDS011;5143;42.584;23.164;2023-03-14T03:04:41;11.80;;;7.13;;
10201;SDS011;5143;42.584;23.164;2023-03-14T03:07:07;11.33;;;6.70;;
10201;SDS011;5143;42.584;23.164;2023-03-14T03:09:34;11.30;;;6.23;;
10201;SDS011;5143;42.584;23.164;2023-03-14T03:12:01;10.83;;;6.90;;
10201;SDS011;5143;42.584;23.164;2023-03-14T03:14:29;8.70;;;4.90;;
10201;SDS011;5143;42.584;23.164;2023-03-14T03:16:56;7.47;;;4.90;;
10201;SDS011;5143;42.584;23.164;2023-03-14T03:19:22;7.93;;;5.00;;
10201;SDS011;5143;42.584;23.164;2023-03-14T03:21:49;8.80;;;5.97;;
10201;SDS011;5143;42.584;23.164;2023-03-14T03:24:16;7.60;;;5.13;;
10201;SDS011;5143;42.584;23.164;2023-03-14T03:26:43;7.33;;;5.03;;
10201;SDS011;5143;42.584;23.164;2023-03-14T03:29:09;6.27;;;4.20;;
10201;SDS011;5143;42.584;23.164;2023-03-14T03:31:38;7.17;;;4.83;;
10201;SDS011;5143;42.584;23.164;2023-03-14T03:34:05;6.70;;;4.70;;
10201;SDS011;5143;42.584;23.164;2023-03-14T03:36:32;10.07;;;6.33;;
10201;SDS011;5143;42.584;23.164;2023-03-14T03:38:59;11.23;;;7.10;;
10201;SDS011;5143;42.584;23.164;2023-03-14T03:41:25;11.50;;;6.63;;
10201;SDS011;5143;42.584;23.164;2023-03-14T03:43:52;9.80;;;5.80;;
10201;SDS011;5143;42.584;23.164;2023-03-14T03:46:19;8.87;;;5.73;;
10201;SDS011;5143;42.584;23.164;2023-03-14T03:48:47;13.60;;;6.00;;
10201;SDS011;5143;42.584;23.164;2023-03-14T03:51:14;9.97;;;6.53;;
10201;SDS011;5143;42.584;23.164;2023-03-14T03:53:42;12.60;;;7.27;;
10201;SDS011;5143;42.584;23.164;2023-03-14T03:56:09;10.93;;;7.20;;
10201;SDS011;5143;42.584;23.164;2023-03-14T03:58:36;9.90;;;5.90;;
10201;SDS011;5143;42.584;23.164;2023-03-14T04:01:04;11.30;;;6.47;;
10201;SDS011;5143;42.584;23.164;2023-03-14T04:03:31;10.60;;;6.23;;
10201;SDS011;5143;42.584;23.164;2023-03-14T04:06:00;12.37;;;6.53;;
10201;SDS011;5143;42.584;23.164;2023-03-14T04:08:28;10.80;;;6.47;;
10201;SDS011;5143;42.584;23.164;2023-03-14T04:10:55;10.80;;;6.50;;
10201;SDS011;5143;42.584;23.164;2023-03-14T04:13:23;8.37;;;5.87;;
10201;SDS011;5143;42.584;23.164;2023-03-14T04:15:50;10.63;;;5.93;;
10201;SDS011;5143;42.584;23.164;2023-03-14T04:18:18;9.57;;;6.17;;
10201;SDS011;5143;42.584;23.164;2023-03-14T04:20:45;11.63;;;6.43;;
10201;SDS011;5143;42.584;23.164;2023-03-14T04:23:13;15.87;;;6.70;;
10201;SDS011;5143;42.584;23.164;2023-03-14T04:25:40;13.23;;;6.47;;
10201;SDS011;5143;42.584;23.164;2023-03-14T04:28:06;14.57;;;6.83;;
10201;SDS011;5143;42.584;23.164;2023-03-14T04:30:33;11.03;;;6.47;;
10201;SDS011;5143;42.584;23.164;2023-03-14T04:33:00;9.30;;;6.30;;
10201;SDS011;5143;42.584;23.164;2023-03-14T04:35:27;10.77;;;6.53;;
10201;SDS011;5143;42.584;23.164;2023-03-14T04:37:53;16.40;;;10.37;;
10201;SDS011;5143;42.584;23.164;2023-03-14T04:40:22;20.13;;;11.50;;
10201;SDS011;5143;42.584;23.164;2023-03-14T04:42:48;21.93;;;14.27;;
10201;SDS011;5143;42.584;23.164;2023-03-14T04:45:15;25.93;;;16.03;;
10201;SDS011;5143;42.584;23.164;2023-03-14T04:47:42;23.67;;;14.10;;
10201;SDS011;5143;42.584;23.164;2023-03-14T04:50:09;21.53;;;13.47;;
10201;SDS011;5143;42.584;23.164;2023-03-14T04:52:37;21.83;;;13.90;;
10201;SDS011;5143;42.584;23.164;2023-03-14T04:55:04;29.37;;;16.23;;
10201;SDS011;5143;42.584;23.164;2023-03-14T04:57:32;22.77;;;15.03;;
10201;SDS011;5143;42.584;23.164;2023-03-14T04:59:59;23.37;;;14.20;;
10201;SDS011;5143;42.584;23.164;2023-03-14T05:02:26;26.03;;;14.30;;
10201;SDS011;5143;42.584;23.164;2023-03-14T05:04:53;23.60;;;14.10;;
10201;SDS011;5143;42.584;23.164;2023-03-14T05:07:20;24.70;;;14.63;;
10201;SDS011;5143;42.584;23.164;2023-03-14T05:09:46;26.77;;;14.43;;
10201;SDS011;5143;42.584;23.164;2023-03-14T05:12:13;23.93;;;14.57;;
10201;SDS011;5143;42.584;23.164;2023-03-14T05:14:42;27.07;;;11.17;;
10201;SDS011;5143;42.584;23.164;2023-03-14T05:17:08;32.27;;;13.27;;
10201;SDS011;5143;42.584;23.164;2023-03-14T05:19:36;22.13;;;13.03;;
10201;SDS011;5143;42.584;23.164;2023-03-14T05:22:03;19.33;;;12.30;;
10201;SDS011;5143;42.584;23.164;2023-03-14T05:24:30;20.83;;;11.73;;
10201;SDS011;5143;42.584;23.164;2023-03-14T05:26:56;35.30;;;12.70;;
10201;SDS011;5143;42.584;23.164;2023-03-14T05:29:24;19.63;;;11.57;;
10201;SDS011;5143;42.584;23.164;2023-03-14T05:31:52;26.83;;;12.13;;
10201;SDS011;5143;42.584;23.164;2023-03-14T05:34:19;21.53;;;11.63;;
10201;SDS011;5143;42.584;23.164;2023-03-14T05:36:46;28.90;;;11.13;;
10201;SDS011;5143;42.584;23.164;2023-03-14T05:39:12;21.67;;;10.83;;
10201;SDS011;5143;42.584;23.164;2023-03-14T05:41:39;20.33;;;9.67;;
10201;SDS011;5143;42.584;23.164;2023-03-14T05:44:06;28.03;;;11.10;;
10201;SDS011;5143;42.584;23.164;2023-03-14T05:46:33;26.47;;;11.20;;
10201;SDS011;5143;42.584;23.164;2023-03-14T05:49:01;20.53;;;11.03;;
10201;SDS011;5143;42.584;23.164;2023-03-14T05:51:28;24.40;;;12.73;;
10201;SDS011;5143;42.584;23.164;2023-03-14T05:53:54;23.77;;;13.43;;
10201;SDS011;5143;42.584;23.164;2023-03-14T05:56:21;18.83;;;11.83;;
10201;SDS011;5143;42.584;23.164;2023-03-14T05:58:48;21.83;;;11.00;;
10201;SDS011;5143;42.584;23.164;2023-03-14T06:01:14;24.77;;;13.90;;
10201;SDS011;5143;42.584;23.164;2023-03-14T06:03:41;34.20;;;17.93;;
10201;SDS011;5143;42.584;23.164;2023-03-14T06:06:09;50.23;;;26.53;;
10201;SDS011;5143;42.584;23.164;2023-03-14T06:08:36;130.23;;;58.70;;
10201;SDS011;5143;42.584;23.164;2023-03-14T06:11:03;102.10;;;49.97;;
10201;SDS011;5143;42.584;23.164;2023-03-14T06:13:30;77.67;;;36.20;;
10201;SDS011;5143;42.584;23.164;2023-03-14T06:15:57;70.60;;;36.83;;
10201;SDS011;5143;42.584;23.164;2023-03-14T06:18:23;70.23;;;31.03;;
10201;SDS011;5143;42.584;23.164;2023-03-14T06:20:53;76.13;;;30.53;;
10201;SDS011;5143;42.584;23.164;2023-03-14T06:23:21;55.43;;;24.20;;
10201;SDS011;5143;42.584;23.164;2023-03-14T06:25:48;45.90;;;22.50;;
10201;SDS011;5143;42.584;23.164;2023-03-14T06:28:15;33.00;;;18.50;;
10201;SDS011;5143;42.584;23.164;2023-03-14T06:30:42;29.70;;;18.00;;
10201;SDS011;5143;42.584;23.164;2023-03-14T06:33:08;35.63;;;19.30;;
10201;SDS011;5143;42.584;23.164;2023-03-14T06:35:35;29.70;;;16.90;;
10201;SDS011;5143;42.584;23.164;2023-03-14T06:38:02;19.53;;;11.90;;
10201;SDS011;5143;42.584;23.164;2023-03-14T06:40:30;20.20;;;10.57;;
10201;SDS011;5143;42.584;23.164;2023-03-14T06:42:57;20.13;;;10.57;;
10201;SDS011;5143;42.584;23.164;2023-03-14T06:45:24;19.47;;;11.53;;
10201;SDS011;5143;42.584;23.164;2023-03-14T06:47:51;29.10;;;11.37;;
10201;SDS011;5143;42.584;23.164;2023-03-14T06:50:17;21.27;;;11.60;;
10201;SDS011;5143;42.584;23.164;2023-03-14T06:52:44;17.87;;;11.13;;
10201;SDS011;5143;42.584;23.164;2023-03-14T06:55:13;17.80;;;8.63;;
10201;SDS011;5143;42.584;23.164;2023-03-14T06:57:41;12.13;;;8.30;;
10201;SDS011;5143;42.584;23.164;2023-03-14T07:00:09;11.70;;;6.83;;
10201;SDS011;5143;42.584;23.164;2023-03-14T07:02:36;12.27;;;7.00;;
10201;SDS011;5143;42.584;23.164;2023-03-14T07:05:03;10.37;;;6.37;;
10201;SDS011;5143;42.584;23.164;2023-03-14T07:07:31;10.97;;;6.03;;
10201;SDS011;5143;42.584;23.164;2023-03-14T07:09:58;12.43;;;6.10;;
10201;SDS011;5143;42.584;23.164;2023-03-14T07:12:24;11.70;;;6.27;;
10201;SDS011;5143;42.584;23.164;2023-03-14T07:14:53;12.60;;;6.50;;
10201;SDS011;5143;42.584;23.164;2023-03-14T07:17:19;10.60;;;6.03;;
10201;SDS011;5143;42.584;23.164;2023-03-14T07:19:46;11.40;;;6.00;;
10201;SDS011;5143;42.584;23.164;2023-03-14T07:22:13;15.43;;;8.23;;
10201;SDS011;5143;42.584;23.164;2023-03-14T07:24:39;15.97;;;7.70;;
10201;SDS011;5143;42.584;23.164;2023-03-14T07:27:06;10.13;;;6.63;;
10201;SDS011;5143;42.584;23.164;2023-03-14T07:29:33;18.13;;;10.60;;
10201;SDS011;5143;42.584;23.164;2023-03-14T07:32:01;22.73;;;12.20;;
10201;SDS011;5143;42.584;23.164;2023-03-14T07:34:28;31.87;;;19.20;;
10201;SDS011;5143;42.584;23.164;2023-03-14T07:36:54;20.30;;;11.90;;
10201;SDS011;5143;42.584;23.164;2023-03-14T07:39:21;20.30;;;9.47;;
10201;SDS011;5143;42.584;23.164;2023-03-14T07:41:48;21.97;;;9.33;;
10201;SDS011;5143;42.584;23.164;2023-03-14T07:44:14;16.33;;;8.87;;
10201;SDS011;5143;42.584;23.164;2023-03-14T07:46:41;13.80;;;8.33;;
10201;SDS011;5143;42.584;23.164;2023-03-14T07:49:10;25.37;;;8.03;;
10201;SDS011;5143;42.584;23.164;2023-03-14T07:51:36;16.87;;;7.70;;
10201;SDS011;5143;42.584;23.164;2023-03-14T07:54:03;16.03;;;7.90;;
10201;SDS011;5143;42.584;23.164;2023-03-14T07:56:30;16.57;;;8.33;;
10201;SDS011;5143;42.584;23.164;2023-03-14T07:58:57;19.10;;;9.73;;
10201;SDS011;5143;42.584;23.164;2023-03-14T08:01:23;24.53;;;10.77;;
10201;SDS011;5143;42.584;23.164;2023-03-14T08:03:51;21.37;;;10.60;;
10201;SDS011;5143;42.584;23.164;2023-03-14T08:06:19;20.47;;;10.77;;
10201;SDS011;5143;42.584;23.164;2023-03-14T08:08:46;25.03;;;11.37;;
10201;SDS011;5143;42.584;23.164;2023-03-14T08:11:12;21.13;;;10.87;;
10201;SDS011;5143;42.584;23.164;2023-03-14T08:13:39;17.50;;;7.77;;
10201;SDS011;5143;42.584;23.164;2023-03-14T08:16:06;14.80;;;6.67;;
10201;SDS011;5143;42.584;23.164;2023-03-14T08:18:34;21.77;;;10.30;;
10201;SDS011;5143;42.584;23.164;2023-03-14T08:21:00;7.07;;;3.07;;
10201;SDS011;5143;42.584;23.164;2023-03-14T08:23:28;4.67;;;1.60;;
10201;SDS011;5143;42.584;23.164;2023-03-14T08:25:55;4.70;;;2.00;;
10201;SDS011;5143;42.584;23.164;2023-03-14T08:28:22;7.43;;;3.20;;
10201;SDS011;5143;42.584;23.164;2023-03-14T08:30:48;2.10;;;1.60;;
10201;SDS011;5143;42.584;23.164;2023-03-14T08:33:15;10.17;;;1.67;;
10201;SDS011;5143;42.584;23.164;2023-03-14T08:35:42;4.90;;;1.30;;
10201;SDS011;5143;42.584;23.164;2023-03-14T08:38:09;3.10;;;1.40;;
10201;SDS011;5143;42.584;23.164;2023-03-14T08:40:37;3.70;;;1.50;;
10201;SDS011;5143;42.584;23.164;2023-03-14T08:43:04;4.37;;;1.87;;
10201;SDS011;5143;42.584;23.164;2023-03-14T08:45:30;4.00;;;1.43;;
10201;SDS011;5143;42.584;23.164;2023-03-14T08:47:57;2.13;;;1.50;;
10201;SDS011;5143;42.584;23.164;2023-03-14T08:50:24;2.97;;;1.50;;
10201;SDS011;5143;42.584;23.164;2023-03-14T08:52:51;4.43;;;1.40;;
10201;SDS011;5143;42.584;23.164;2023-03-14T08:55:18;3.20;;;1.53;;
10201;SDS011;5143;42.584;23.164;2023-03-14T08:57:46;4.30;;;1.40;;
10201;SDS011;5143;42.584;23.164;2023-03-14T09:00:13;3.70;;;1.40;;
10201;SDS011;5143;42.584;23.164;2023-03-14T09:02:42;4.03;;;1.70;;
10201;SDS011;5143;42.584;23.164;2023-03-14T09:05:09;2.77;;;1.57;;
10201;SDS011;5143;42.584;23.164;2023-03-14T09:07:36;2.40;;;1.40;;
10201;SDS011;5143;42.584;23.164;2023-03-14T09:10:03;4.03;;;1.50;;
10201;SDS011;5143;42.584;23.164;2023-03-14T09:12:30;2.57;;;1.20;;
10201;SDS011;5143;42.584;23.164;2023-03-14T09:14:59;1.90;;;1.47;;
10201;SDS011;5143;42.584;23.164;2023-03-14T09:17:25;2.03;;;1.20;;
10201;SDS011;5143;42.584;23.164;2023-03-14T09:19:53;6.33;;;1.70;;
10201;SDS011;5143;42.584;23.164;2023-03-14T09:22:19;2.20;;;1.20;;
10201;SDS011;5143;42.584;23.164;2023-03-14T09:24:46;5.43;;;1.60;;
10201;SDS011;5143;42.584;23.164;2023-03-14T09:27:13;2.33;;;1.27;;
10201;SDS011;5143;42.584;23.164;2023-03-14T09:29:40;4.23;;;3.00;;
10201;SDS011;5143;42.584;23.164;2023-03-14T09:32:08;2.93;;;1.30;;
10201;SDS011;5143;42.584;23.164;2023-03-14T09:34:35;3.77;;;1.53;;
10201;SDS011;5143;42.584;23.164;2023-03-14T09:37:01;1.60;;;1.10;;
10201;SDS011;5143;42.584;23.164;2023-03-14T09:39:29;4.20;;;1.30;;
10201;SDS011;5143;42.584;23.164;2023-03-14T09:41:55;1.73;;;1.10;;
10201;SDS011;5143;42.584;23.164;2023-03-14T09:44:28;3.53;;;1.10;;
10201;SDS011;5143;42.584;23.164;2023-03-14T09:46:57;3.80;;;1.33;;
10201;SDS011;5143;42.584;23.164;2023-03-14T09:49:29;2.37;;;1.23;;
10201;SDS011;5143;42.584;23.164;2023-03-14T09:51:58;2.50;;;1.40;;
10201;SDS011;5143;42.584;23.164;2023-03-14T09:54:30;2.80;;;1.40;;
10201;SDS011;5143;42.584;23.164;2023-03-14T09:56:58;2.07;;;1.20;;
10201;SDS011;5143;42.584;23.164;2023-03-14T09:59:25;5.30;;;1.47;;
10201;SDS011;5143;42.584;23.164;2023-03-14T10:01:55;3.10;;;1.70;;
10201;SDS011;5143;42.584;23.164;2023-03-14T10:04:24;1.70;;;1.20;;
10201;SDS011;5143;42.584;23.164;2023-03-14T10:06:53;3.97;;;1.40;;
10201;SDS011;5143;42.584;23.164;2023-03-14T10:09:21;1.50;;;1.20;;
10201;SDS011;5143;42.584;23.164;2023-03-14T10:11:51;5.27;;;2.17;;
10201;SDS011;5143;42.584;23.164;2023-03-14T10:14:31;2.63;;;1.50;;
10201;SDS011;5143;42.584;23.164;2023-03-14T10:17:04;4.57;;;2.30;;
10201;SDS011;5143;42.584;23.164;2023-03-14T10:19:32;3.77;;;1.50;;
10201;SDS011;5143;42.584;23.164;2023-03-14T10:22:02;3.70;;;1.87;;
10201;SDS011;5143;42.584;23.164;2023-03-14T10:24:31;3.80;;;1.47;;
10201;SDS011;5143;42.584;23.164;2023-03-14T10:27:00;3.30;;;1.23;;
10201;SDS011;5143;42.584;23.164;2023-03-14T10:29:29;4.50;;;1.53;;
10201;SDS011;5143;42.584;23.164;2023-03-14T10:31:58;6.47;;;1.60;;
10201;SDS011;5143;42.584;23.164;2023-03-14T10:34:27;11.83;;;1.67;;
10201;SDS011;5143;42.584;23.164;2023-03-14T10:36:56;3.00;;;1.40;;
10201;SDS011;5143;42.584;23.164;2023-03-14T10:39:27;2.60;;;1.30;;
10201;SDS011;5143;42.584;23.164;2023-03-14T10:42:04;3.00;;;1.10;;
10201;SDS011;5143;42.584;23.164;2023-03-14T10:44:37;4.80;;;1.10;;
10201;SDS011;5143;42.584;23.164;2023-03-14T10:47:05;2.53;;;1.20;;
10201;SDS011;5143;42.584;23.164;2023-03-14T10:49:33;2.80;;;1.20;;
10201;SDS011;5143;42.584;23.164;2023-03-14T10:52:01;1.50;;;1.03;;
10201;SDS011;5143;42.584;23.164;2023-03-14T10:54:40;9.37;;;1.40;;
10201;SDS011;5143;42.584;23.164;2023-03-14T10:57:10;1.40;;;0.97;;
10201;SDS011;5143;42.584;23.164;2023-03-14T10:59:38;1.53;;;1.10;;
10201;SDS011;5143;42.584;23.164;2023-03-14T11:02:10;4.13;;;1.90;;
10201;SDS011;5143;42.584;23.164;2023-03-14T11:04:54;2.20;;;1.67;;
10201;SDS011;5143;42.584;23.164;2023-03-14T11:07:30;1.53;;;1.10;;
10201;SDS011;5143;42.584;23.164;2023-03-14T11:10:07;1.80;;;1.10;;
10201;SDS011;5143;42.584;23.164;2023-03-14T11:12:41;2.00;;;1.30;;
10201;SDS011;5143;42.584;23.164;2023-03-14T11:15:17;1.90;;;1.43;;
10201;SDS011;5143;42.584;23.164;2023-03-14T11:17:52;3.03;;;1.73;;
10201;SDS011;5143;42.584;23.164;2023-03-14T11:20:32;3.50;;;1.17;;
10201;SDS011;5143;42.584;23.164;2023-03-14T11:23:07;2.90;;;1.33;;
10201;SDS011;5143;42.584;23.164;2023-03-14T11:25:41;2.40;;;1.53;;
10201;SDS011;5143;42.584;23.164;2023-03-14T11:28:18;1.67;;;1.10;;
10201;SDS011;5143;42.584;23.164;2023-03-14T11:30:50;2.53;;;1.13;;
10201;SDS011;5143;42.584;23.164;2023-03-14T11:33:21;2.50;;;1.10;;
10201;SDS011;5143;42.584;23.164;2023-03-14T11:35:53;1.70;;;1.13;;
10201;SDS011;5143;42.584;23.164;2023-03-14T11:38:27;1.90;;;1.40;;
10201;SDS011;5143;42.584;23.164;2023-03-14T11:41:01;6.53;;;1.10;;
10201;SDS011;5143;42.584;23.164;2023-03-14T11:43:29;1.53;;;0.97;;
10201;SDS011;5143;42.584;23.164;2023-03-14T11:46:02;2.87;;;1.07;;
10201;SDS011;5143;42.584;23.164;2023-03-14T11:48:35;1.40;;;0.90;;
10201;SDS011;5143;42.584;23.164;2023-03-14T11:51:09;1.10;;;0.90;;
10201;SDS011;5143;42.584;23.164;2023-03-14T11:53:45;4.20;;;0.90;;
10201;SDS011;5143;42.584;23.164;2023-03-14T11:56:22;1.57;;;1.10;;
10201;SDS011;5143;42.584;23.164;2023-03-14T11:58:55;1.57;;;0.97;;
10201;SDS011;5143;42.584;23.164;2023-03-14T12:01:28;2.13;;;1.07;;
10201;SDS011;5143;42.584;23.164;2023-03-14T12:04:05;1.20;;;0.90;;
10201;SDS011;5143;42.584;23.164;2023-03-14T12:06:40;1.90;;;1.00;;
10201;SDS011;5143;42.584;23.164;2023-03-14T12:09:14;24.97;;;19.37;;
10201;SDS011;5143;42.584;23.164;2023-03-14T12:11:45;7.53;;;6.07;;
10201;SDS011;5143;42.584;23.164;2023-03-14T12:14:19;1.67;;;1.23;;
10201;SDS011;5143;42.584;23.164;2023-03-14T12:16:52;1.83;;;1.23;;
10201;SDS011;5143;42.584;23.164;2023-03-14T12:19:26;2.20;;;1.60;;
10201;SDS011;5143;42.584;23.164;2023-03-14T12:21:56;2.87;;;1.80;;
10201;SDS011;5143;42.584;23.164;2023-03-14T12:24:27;2.20;;;1.33;;
10201;SDS011;5143;42.584;23.164;2023-03-14T12:26:58;2.07;;;1.37;;
10201;SDS011;5143;42.584;23.164;2023-03-14T12:29:26;3.47;;;1.40;;
10201;SDS011;5143;42.584;23.164;2023-03-14T12:32:08;2.37;;;1.40;;
10201;SDS011;5143;42.584;23.164;2023-03-14T12:34:47;1.60;;;1.37;;
10201;SDS011;5143;42.584;23.164;2023-03-14T12:37:16;1.90;;;1.10;;
10201;SDS011;5143;42.584;23.164;2023-03-14T12:39:53;1.87;;;1.30;;
10201;SDS011;5143;42.584;23.164;2023-03-14T12:42:40;3.40;;;3.10;;
10201;SDS011;5143;42.584;23.164;2023-03-14T12:45:24;4.20;;;1.63;;
10201;SDS011;5143;42.584;23.164;2023-03-14T12:47:54;1.77;;;1.30;;
10201;SDS011;5143;42.584;23.164;2023-03-14T12:50:35;1.87;;;1.30;;
10201;SDS011;5143;42.584;23.164;2023-03-14T12:56:28;3.23;;;2.80;;
10201;SDS011;5143;42.584;23.164;2023-03-14T12:59:09;4.77;;;2.43;;
10201;SDS011;5143;42.584;23.164;2023-03-14T13:01:53;6.87;;;4.60;;
10201;SDS011;5143;42.584;23.164;2023-03-14T13:04:25;1.60;;;1.37;;
10201;SDS011;5143;42.584;23.164;2023-03-14T13:06:55;4.40;;;2.30;;
10201;SDS011;5143;42.584;23.164;2023-03-14T13:09:35;8.77;;;3.70;;
10201;SDS011;5143;42.584;23.164;2023-03-14T13:12:23;1.93;;;1.23;;
10201;SDS011;5143;42.584;23.164;2023-03-14T13:14:59;1.50;;;1.37;;
10201;SDS011;5143;42.584;23.164;2023-03-14T13:17:30;1.80;;;1.20;;
10201;SDS011;5143;42.584;23.164;2023-03-14T13:20:00;1.57;;;1.20;;
10201;SDS011;5143;42.584;23.164;2023-03-14T13:22:31;2.33;;;1.73;;
10201;SDS011;5143;42.584;23.164;2023-03-14T13:25:02;3.60;;;1.90;;
10201;SDS011;5143;42.584;23.164;2023-03-14T13:27:32;1.73;;;1.10;;
10201;SDS011;5143;42.584;23.164;2023-03-14T13:30:11;4.40;;;1.40;;
10201;SDS011;5143;42.584;23.164;2023-03-14T13:32:42;4.13;;;1.43;;
10201;SDS011;5143;42.584;23.164;2023-03-14T13:35:14;1.30;;;1.10;;
10201;SDS011;5143;42.584;23.164;2023-03-14T13:37:42;1.93;;;1.30;;
10201;SDS011;5143;42.584;23.164;2023-03-14T13:40:17;1.57;;;1.20;;
10201;SDS011;5143;42.584;23.164;2023-03-14T13:42:45;3.50;;;1.27;;
10201;SDS011;5143;42.584;23.164;2023-03-14T13:45:13;2.00;;;0.90;;
10201;SDS011;5143;42.584;23.164;2023-03-14T13:47:40;5.87;;;1.10;;
10201;SDS011;5143;42.584;23.164;2023-03-14T13:50:12;3.87;;;1.27;;
10201;SDS011;5143;42.584;23.164;2023-03-14T13:52:42;1.60;;;1.10;;
10201;SDS011;5143;42.584;23.164;2023-03-14T13:55:14;4.00;;;1.33;;
10201;SDS011;5143;42.584;23.164;2023-03-14T13:57:43;2.47;;;1.20;;
10201;SDS011;5143;42.584;23.164;2023-03-14T14:00:19;1.67;;;1.10;;
10201;SDS011;5143;42.584;23.164;2023-03-14T14:02:51;1.50;;;1.00;;
10201;SDS011;5143;42.584;23.164;2023-03-14T14:05:19;7.50;;;4.63;;
10201;SDS011;5143;42.584;23.164;2023-03-14T14:07:48;6.40;;;4.27;;
10201;SDS011;5143;42.584;23.164;2023-03-14T14:10:17;4.77;;;3.37;;
10201;SDS011;5143;42.584;23.164;2023-03-14T14:12:45;24.83;;;21.47;;
10201;SDS011;5143;42.584;23.164;2023-03-14T14:15:17;62.33;;;40.80;;
10201;SDS011;5143;42.584;23.164;2023-03-14T14:17:48;12.80;;;11.50;;
10201;SDS011;5143;42.584;23.164;2023-03-14T14:20:20;12.93;;;11.63;;
10201;SDS011;5143;42.584;23.164;2023-03-14T14:22:49;13.70;;;12.30;;
10201;SDS011;5143;42.584;23.164;2023-03-14T14:25:17;13.80;;;12.40;;
10201;SDS011;5143;42.584;23.164;2023-03-14T14:27:46;6.07;;;5.47;;
10201;SDS011;5143;42.584;23.164;2023-03-14T14:30:29;8.17;;;4.13;;
10201;SDS011;5143;42.584;23.164;2023-03-14T14:33:10;23.77;;;21.57;;
10201;SDS011;5143;42.584;23.164;2023-03-14T14:35:42;9.13;;;6.73;;
10201;SDS011;5143;42.584;23.164;2023-03-14T14:38:18;3.77;;;2.83;;
10201;SDS011;5143;42.584;23.164;2023-03-14T14:40:48;8.27;;;4.80;;
10201;SDS011;5143;42.584;23.164;2023-03-14T14:43:17;6.90;;;4.73;;
10201;SDS011;5143;42.584;23.164;2023-03-14T14:45:49;3.23;;;2.50;;
10201;SDS011;5143;42.584;23.164;2023-03-14T14:48:18;7.30;;;4.30;;
10201;SDS011;5143;42.584;23.164;2023-03-14T14:50:54;4.03;;;2.63;;
10201;SDS011;5143;42.584;23.164;2023-03-14T14:53:23;4.10;;;3.03;;
10201;SDS011;5143;42.584;23.164;2023-03-14T14:55:53;3.90;;;3.23;;